sensor_id;sensor_type;location;lat;lon;timestamp;pressure;altitude;pressure_sealevel;temperature;humidity
40596;BME280;26304;48.794;9.820;2023-08-01T00:00:06;95486.78;;;19.23;74.23
40596;BME280;26304;48.794;9.820;2023-08-01T00:05:50;95493.38;;;19.39;74.09
40596;BME280;26304;48.794;9.820;2023-08-01T00:11:33;95493.34;;;19.70;73.54
40596;BME280;26304;48.794;9.820;2023-08-01T00:17:15;95481.75;;;19.64;74.52
40596;BME280;26304;48.794;9.820;2023-08-01T00:22:59;95479.03;;;19.71;74.94
40596;BME280;26304;48.794;9.820;2023-08-01T00:28:41;95467.66;;;19.77;74.60
40596;BME280;26304;48.794;9.820;2023-08-01T00:34:24;95455.63;;;19.73;75.35
40596;BME280;26304;48.794;9.820;2023-08-01T00:40:08;95456.44;;;19.70;75.98
40596;BME280;26304;48.794;9.820;2023-08-01T00:45:51;95443.25;;;19.70;76.29
40596;BME280;26304;48.794;9.820;2023-08-01T00:51:35;95445.28;;;19.58;76.85
40596;BME280;26304;48.794;9.820;2023-08-01T00:57:19;95417.53;;;19.50;77.58
40596;BME280;26304;48.794;9.820;2023-08-01T01:03:02;95395.41;;;19.44;77.89
40596;BME280;26304;48.794;9.820;2023-08-01T01:08:44;95380.72;;;19.47;78.40
40596;BME280;26304;48.794;9.820;2023-08-01T01:14:29;95376.84;;;19.51;78.32
40596;BME280;26304;48.794;9.820;2023-08-01T01:20:11;95376.16;;;19.47;78.75
40596;BME280;26304;48.794;9.820;2023-08-01T01:25:56;95376.84;;;19.51;77.92
40596;BME280;26304;48.794;9.820;2023-08-01T01:31:39;95355.09;;;19.47;78.36
40596;BME280;26304;48.794;9.820;2023-08-01T01:37:22;95338.13;;;19.48;78.27
40596;BME280;26304;48.794;9.820;2023-08-01T01:43:06;95328.41;;;19.41;79.02
40596;BME280;26304;48.794;9.820;2023-08-01T01:48:48;95335.09;;;19.22;80.38
40596;BME280;26304;48.794;9.820;2023-08-01T01:54:31;95338.19;;;19.17;81.32
40596;BME280;26304;48.794;9.820;2023-08-01T02:00:15;95345.53;;;18.75;79.69
40596;BME280;26304;48.794;9.820;2023-08-01T02:05:58;95305.56;;;18.84;79.47
40596;BME280;26304;48.794;9.820;2023-08-01T02:11:40;95305.13;;;18.89;78.81
40596;BME280;26304;48.794;9.820;2023-08-01T02:17:24;95286.06;;;19.05;78.58
40596;BME280;26304;48.794;9.820;2023-08-01T02:23:06;95270.50;;;19.14;79.12
40596;BME280;26304;48.794;9.820;2023-08-01T02:28:49;95252.06;;;19.14;79.24
40596;BME280;26304;48.794;9.820;2023-08-01T02:34:32;95247.25;;;19.09;79.75
40596;BME280;26304;48.794;9.820;2023-08-01T02:40:15;95246.34;;;19.19;79.12
40596;BME280;26304;48.794;9.820;2023-08-01T02:45:57;95245.31;;;19.13;79.50
40596;BME280;26304;48.794;9.820;2023-08-01T02:51:42;95265.38;;;19.31;79.38
40596;BME280;26304;48.794;9.820;2023-08-01T02:57:24;95250.69;;;19.30;79.61
40596;BME280;26304;48.794;9.820;2023-08-01T03:03:07;95267.31;;;19.27;79.85
40596;BME280;26304;48.794;9.820;2023-08-01T03:08:51;95247.31;;;19.05;80.57
40596;BME280;26304;48.794;9.820;2023-08-01T03:14:33;95239.19;;;18.96;80.81
40596;BME280;26304;48.794;9.820;2023-08-01T03:20:15;95231.22;;;19.00;80.30
40596;BME280;26304;48.794;9.820;2023-08-01T03:25:59;95227.41;;;18.77;80.28
40596;BME280;26304;48.794;9.820;2023-08-01T03:31:41;95201.34;;;19.10;79.16
40596;BME280;26304;48.794;9.820;2023-08-01T03:37:24;95206.03;;;18.99;79.38
40596;BME280;26304;48.794;9.820;2023-08-01T03:43:08;95207.19;;;18.98;79.63
40596;BME280;26304;48.794;9.820;2023-08-01T03:48:51;95217.25;;;19.03;79.44
40596;BME280;26304;48.794;9.820;2023-08-01T03:54:34;95207.91;;;18.98;79.60
40596;BME280;26304;48.794;9.820;2023-08-01T04:00:18;95217.47;;;19.12;79.33
40596;BME280;26304;48.794;9.820;2023-08-01T04:06:00;95209.00;;;19.01;79.57
40596;BME280;26304;48.794;9.820;2023-08-01T04:11:43;95208.50;;;18.86;79.58
40596;BME280;26304;48.794;9.820;2023-08-01T04:17:27;95210.06;;;18.80;79.13
40596;BME280;26304;48.794;9.820;2023-08-01T04:23:10;95214.84;;;18.88;79.42
40596;BME280;26304;48.794;9.820;2023-08-01T04:28:53;95211.88;;;18.86;79.40
40596;BME280;26304;48.794;9.820;2023-08-01T04:34:37;95185.97;;;18.81;80.26
40596;BME280;26304;48.794;9.820;2023-08-01T04:40:19;95179.34;;;18.97;79.12
40596;BME280;26304;48.794;9.820;2023-08-01T04:46:04;95125.50;;;19.41;76.15
40596;BME280;26304;48.794;9.820;2023-08-01T04:51:50;95114.28;;;19.57;74.23
40596;BME280;26304;48.794;9.820;2023-08-01T04:57:32;95106.78;;;19.76;74.52
40596;BME280;26304;48.794;9.820;2023-08-01T05:03:14;95091.66;;;19.80;74.96
40596;BME280;26304;48.794;9.820;2023-08-01T05:08:58;95072.53;;;19.92;74.31
40596;BME280;26304;48.794;9.820;2023-08-01T05:14:41;95079.22;;;19.97;73.95
40596;BME280;26304;48.794;9.820;2023-08-01T05:20:23;95079.88;;;20.01;74.55
40596;BME280;26304;48.794;9.820;2023-08-01T05:26:12;95096.94;;;20.13;74.30
40596;BME280;26304;48.794;9.820;2023-08-01T05:31:55;95125.00;;;20.23;74.01
40596;BME280;26304;48.794;9.820;2023-08-01T05:37:37;95134.25;;;20.31;73.38
40596;BME280;26304;48.794;9.820;2023-08-01T05:43:21;95139.53;;;20.31;73.67
40596;BME280;26304;48.794;9.820;2023-08-01T05:49:03;95148.03;;;20.39;73.43
40596;BME280;26304;48.794;9.820;2023-08-01T05:54:46;95146.53;;;20.38;73.31
40596;BME280;26304;48.794;9.820;2023-08-01T06:00:30;95142.41;;;20.37;73.50
40596;BME280;26304;48.794;9.820;2023-08-01T06:06:12;95130.63;;;20.42;73.31
40596;BME280;26304;48.794;9.820;2023-08-01T06:11:55;95128.56;;;20.49;73.12
40596;BME280;26304;48.794;9.820;2023-08-01T06:17:38;95133.94;;;20.46;73.21
40596;BME280;26304;48.794;9.820;2023-08-01T06:23:21;95129.13;;;20.57;73.06
40596;BME280;26304;48.794;9.820;2023-08-01T06:29:03;95130.91;;;20.64;72.72
40596;BME280;26304;48.794;9.820;2023-08-01T06:34:47;95123.22;;;20.70;72.58
40596;BME280;26304;48.794;9.820;2023-08-01T06:40:29;95109.41;;;20.62;72.13
40596;BME280;26304;48.794;9.820;2023-08-01T06:46:12;95126.00;;;20.46;72.39
40596;BME280;26304;48.794;9.820;2023-08-01T06:51:55;95142.16;;;20.48;71.51
40596;BME280;26304;48.794;9.820;2023-08-01T06:57:38;95200.81;;;20.39;71.40
40596;BME280;26304;48.794;9.820;2023-08-01T07:03:20;95198.31;;;20.32;71.55
40596;BME280;26304;48.794;9.820;2023-08-01T07:09:04;95168.66;;;19.91;73.54
40596;BME280;26304;48.794;9.820;2023-08-01T07:14:47;95176.03;;;19.80;73.69
40596;BME280;26304;48.794;9.820;2023-08-01T07:20:29;95220.63;;;19.71;74.23
40596;BME280;26304;48.794;9.820;2023-08-01T07:26:13;95191.09;;;20.00;73.30
40596;BME280;26304;48.794;9.820;2023-08-01T07:31:56;95160.94;;;19.81;74.04
40596;BME280;26304;48.794;9.820;2023-08-01T07:37:38;95149.38;;;19.94;74.17
40596;BME280;26304;48.794;9.820;2023-08-01T07:43:22;95158.00;;;19.95;73.67
40596;BME280;26304;48.794;9.820;2023-08-01T07:49:05;95154.84;;;19.84;73.68
40596;BME280;26304;48.794;9.820;2023-08-01T07:54:47;95186.00;;;20.09;73.26
40596;BME280;26304;48.794;9.820;2023-08-01T08:00:31;95229.03;;;20.06;73.13
40596;BME280;26304;48.794;9.820;2023-08-01T08:06:13;95215.72;;;19.93;74.44
40596;BME280;26304;48.794;9.820;2023-08-01T08:11:56;95189.91;;;20.01;73.54
40596;BME280;26304;48.794;9.820;2023-08-01T08:17:40;95185.75;;;20.20;72.89
40596;BME280;26304;48.794;9.820;2023-08-01T08:23:23;95191.00;;;19.83;73.98
40596;BME280;26304;48.794;9.820;2023-08-01T08:29:05;95202.03;;;19.98;73.67
40596;BME280;26304;48.794;9.820;2023-08-01T08:34:49;95193.72;;;19.80;73.99
40596;BME280;26304;48.794;9.820;2023-08-01T08:40:32;95176.03;;;19.80;74.41
40596;BME280;26304;48.794;9.820;2023-08-01T08:46:16;95188.44;;;19.59;75.67
40596;BME280;26304;48.794;9.820;2023-08-01T08:52:00;95174.34;;;19.46;76.88
40596;BME280;26304;48.794;9.820;2023-08-01T08:57:44;95194.97;;;19.31;77.46
40596;BME280;26304;48.794;9.820;2023-08-01T09:03:31;95182.75;;;19.41;76.98
40596;BME280;26304;48.794;9.820;2023-08-01T09:09:15;95175.56;;;19.21;78.23
40596;BME280;26304;48.794;9.820;2023-08-01T09:14:59;95193.03;;;19.12;79.05
40596;BME280;26304;48.794;9.820;2023-08-01T09:20:42;95181.25;;;19.40;78.08
40596;BME280;26304;48.794;9.820;2023-08-01T09:26:27;95178.75;;;19.53;76.91
40596;BME280;26304;48.794;9.820;2023-08-01T09:32:13;95180.72;;;19.69;76.62
40596;BME280;26304;48.794;9.820;2023-08-01T09:37:59;95178.34;;;19.54;77.63
40596;BME280;26304;48.794;9.820;2023-08-01T09:43:45;95164.31;;;19.81;76.68
40596;BME280;26304;48.794;9.820;2023-08-01T09:49:28;95176.81;;;19.57;78.51
40596;BME280;26304;48.794;9.820;2023-08-01T09:55:11;95179.25;;;19.68;77.72
40596;BME280;26304;48.794;9.820;2023-08-01T10:00:55;95184.25;;;19.42;78.89
40596;BME280;26304;48.794;9.820;2023-08-01T10:06:38;95184.03;;;19.53;78.89
40596;BME280;26304;48.794;9.820;2023-08-01T10:12:25;95194.97;;;19.51;78.96
40596;BME280;26304;48.794;9.820;2023-08-01T10:18:10;95201.00;;;19.52;79.02
40596;BME280;26304;48.794;9.820;2023-08-01T10:23:53;95188.22;;;19.50;79.83
40596;BME280;26304;48.794;9.820;2023-08-01T10:29:36;95187.13;;;19.48;80.39
40596;BME280;26304;48.794;9.820;2023-08-01T10:35:31;95197.56;;;19.75;78.93
40596;BME280;26304;48.794;9.820;2023-08-01T10:41:21;95201.25;;;19.57;80.30
40596;BME280;26304;48.794;9.820;2023-08-01T10:47:05;95200.97;;;19.32;82.49
40596;BME280;26304;48.794;9.820;2023-08-01T10:52:49;95192.16;;;19.42;81.71
40596;BME280;26304;48.794;9.820;2023-08-01T10:58:32;95199.72;;;19.60;80.48
40596;BME280;26304;48.794;9.820;2023-08-01T11:04:16;95187.47;;;19.70;80.50
40596;BME280;26304;48.794;9.820;2023-08-01T11:10:07;95183.53;;;19.38;82.60
40596;BME280;26304;48.794;9.820;2023-08-01T11:15:50;95183.00;;;19.27;83.91
40596;BME280;26304;48.794;9.820;2023-08-01T11:21:34;95195.66;;;19.55;82.33
40596;BME280;26304;48.794;9.820;2023-08-01T11:27:18;95203.84;;;19.61;81.19
40596;BME280;26304;48.794;9.820;2023-08-01T11:33:01;95209.53;;;19.59;79.95
40596;BME280;26304;48.794;9.820;2023-08-01T11:38:45;95213.72;;;19.57;80.20
40596;BME280;26304;48.794;9.820;2023-08-01T11:44:29;95211.69;;;19.65;79.05
40596;BME280;26304;48.794;9.820;2023-08-01T11:50:12;95216.97;;;19.65;79.68
40596;BME280;26304;48.794;9.820;2023-08-01T11:55:54;95229.44;;;19.84;79.18
40596;BME280;26304;48.794;9.820;2023-08-01T12:01:40;95227.88;;;19.87;79.79
40596;BME280;26304;48.794;9.820;2023-08-01T12:07:24;95240.00;;;20.04;79.87
40596;BME280;26304;48.794;9.820;2023-08-01T12:13:19;95244.72;;;19.93;80.43
40596;BME280;26304;48.794;9.820;2023-08-01T12:19:03;95260.69;;;20.06;79.35
40596;BME280;26304;48.794;9.820;2023-08-01T12:24:45;95266.50;;;19.97;78.14
40596;BME280;26304;48.794;9.820;2023-08-01T12:30:28;95279.53;;;19.84;76.08
40596;BME280;26304;48.794;9.820;2023-08-01T12:36:11;95273.84;;;19.86;74.96
40596;BME280;26304;48.794;9.820;2023-08-01T12:41:54;95281.91;;;19.99;74.04
40596;BME280;26304;48.794;9.820;2023-08-01T12:47:36;95278.47;;;20.02;73.75
40596;BME280;26304;48.794;9.820;2023-08-01T12:53:20;95281.91;;;19.99;72.97
40596;BME280;26304;48.794;9.820;2023-08-01T12:59:03;95270.44;;;20.09;71.86
40596;BME280;26304;48.794;9.820;2023-08-01T13:04:46;95265.97;;;20.06;71.15
40596;BME280;26304;48.794;9.820;2023-08-01T13:10:31;95265.97;;;20.06;71.23
40596;BME280;26304;48.794;9.820;2023-08-01T13:16:13;95268.97;;;20.24;70.05
40596;BME280;26304;48.794;9.820;2023-08-01T13:21:56;95261.06;;;20.24;69.93
40596;BME280;26304;48.794;9.820;2023-08-01T13:27:40;95257.59;;;20.27;68.77
40596;BME280;26304;48.794;9.820;2023-08-01T13:33:22;95269.91;;;20.34;67.94
40596;BME280;26304;48.794;9.820;2023-08-01T13:39:05;95263.41;;;20.39;66.91
40596;BME280;26304;48.794;9.820;2023-08-01T13:44:49;95259.16;;;20.45;65.91
40596;BME280;26304;48.794;9.820;2023-08-01T13:50:31;95259.75;;;20.53;64.83
40596;BME280;26304;48.794;9.820;2023-08-01T13:56:14;95268.59;;;20.62;64.03
40596;BME280;26304;48.794;9.820;2023-08-01T14:01:57;95259.81;;;20.49;62.70
40596;BME280;26304;48.794;9.820;2023-08-01T14:07:40;95261.16;;;20.57;62.76
40596;BME280;26304;48.794;9.820;2023-08-01T14:13:22;95258.72;;;20.66;62.40
40596;BME280;26304;48.794;9.820;2023-08-01T14:19:06;95269.41;;;20.59;60.59
40596;BME280;26304;48.794;9.820;2023-08-01T14:24:48;95285.88;;;20.67;59.72
40596;BME280;26304;48.794;9.820;2023-08-01T14:30:31;95288.84;;;20.69;59.24
40596;BME280;26304;48.794;9.820;2023-08-01T14:36:15;95289.09;;;20.75;59.19
40596;BME280;26304;48.794;9.820;2023-08-01T14:41:57;95289.25;;;20.67;59.47
40596;BME280;26304;48.794;9.820;2023-08-01T14:47:39;95309.16;;;20.72;59.52
40596;BME280;26304;48.794;9.820;2023-08-01T14:53:24;95309.75;;;20.80;59.66
40596;BME280;26304;48.794;9.820;2023-08-01T14:59:06;95315.28;;;20.85;59.25
40596;BME280;26304;48.794;9.820;2023-08-01T15:04:50;95321.47;;;20.59;58.60
40596;BME280;26304;48.794;9.820;2023-08-01T15:10:37;95324.44;;;20.61;57.01
40596;BME280;26304;48.794;9.820;2023-08-01T15:16:19;95328.66;;;20.58;57.52
40596;BME280;26304;48.794;9.820;2023-08-01T15:22:02;95328.03;;;20.71;57.46
40596;BME280;26304;48.794;9.820;2023-08-01T15:27:46;95317.66;;;20.80;58.12
40596;BME280;26304;48.794;9.820;2023-08-01T15:33:30;95322.81;;;20.87;57.42
40596;BME280;26304;48.794;9.820;2023-08-01T15:39:13;95315.72;;;20.84;57.28
40596;BME280;26304;48.794;9.820;2023-08-01T15:44:57;95322.00;;;20.90;57.61
40596;BME280;26304;48.794;9.820;2023-08-01T15:50:39;95324.31;;;21.04;56.90
40596;BME280;26304;48.794;9.820;2023-08-01T15:56:22;95313.63;;;20.92;56.29
40596;BME280;26304;48.794;9.820;2023-08-01T16:02:06;95322.09;;;21.03;55.85
40596;BME280;26304;48.794;9.820;2023-08-01T16:07:49;95316.91;;;21.16;55.62
40596;BME280;26304;48.794;9.820;2023-08-01T16:13:31;95313.06;;;21.00;56.61
40596;BME280;26304;48.794;9.820;2023-08-01T16:19:15;95315.22;;;21.05;55.48
40596;BME280;26304;48.794;9.820;2023-08-01T16:24:57;95317.22;;;21.18;54.83
40596;BME280;26304;48.794;9.820;2023-08-01T16:30:40;95325.31;;;21.27;54.45
40596;BME280;26304;48.794;9.820;2023-08-01T16:36:24;95331.75;;;21.26;55.02
40596;BME280;26304;48.794;9.820;2023-08-01T16:42:06;95321.81;;;21.14;53.87
40596;BME280;26304;48.794;9.820;2023-08-01T16:47:49;95324.31;;;21.04;53.92
40596;BME280;26304;48.794;9.820;2023-08-01T16:53:32;95321.69;;;21.21;54.00
40596;BME280;26304;48.794;9.820;2023-08-01T16:59:15;95332.50;;;21.27;54.17
40596;BME280;26304;48.794;9.820;2023-08-01T17:04:57;95331.41;;;21.08;54.04
40596;BME280;26304;48.794;9.820;2023-08-01T17:10:41;95345.06;;;21.06;53.44
40596;BME280;26304;48.794;9.820;2023-08-01T17:16:24;95351.88;;;21.03;53.95
40596;BME280;26304;48.794;9.820;2023-08-01T17:22:06;95349.34;;;21.16;54.58
40596;BME280;26304;48.794;9.820;2023-08-01T17:27:51;95352.97;;;21.06;54.71
40596;BME280;26304;48.794;9.820;2023-08-01T17:33:34;95363.38;;;21.13;54.73
40596;BME280;26304;48.794;9.820;2023-08-01T17:39:16;95372.72;;;21.18;54.62
40596;BME280;26304;48.794;9.820;2023-08-01T17:45:00;95372.53;;;21.09;54.83
40596;BME280;26304;48.794;9.820;2023-08-01T17:50:43;95381.56;;;21.11;54.94
40596;BME280;26304;48.794;9.820;2023-08-01T17:56:25;95398.66;;;21.23;55.29
40596;BME280;26304;48.794;9.820;2023-08-01T18:02:09;95397.41;;;21.11;55.99
40596;BME280;26304;48.794;9.820;2023-08-01T18:07:51;95396.81;;;21.03;55.04
40596;BME280;26304;48.794;9.820;2023-08-01T18:13:34;95424.53;;;20.95;54.27
40596;BME280;26304;48.794;9.820;2023-08-01T18:19:18;95419.88;;;20.83;53.93
40596;BME280;26304;48.794;9.820;2023-08-01T18:25:00;95416.22;;;20.77;53.17
40596;BME280;26304;48.794;9.820;2023-08-01T18:30:43;95423.00;;;20.78;53.25
40596;BME280;26304;48.794;9.820;2023-08-01T18:36:26;95431.66;;;20.78;53.75
40596;BME280;26304;48.794;9.820;2023-08-01T18:42:09;95450.75;;;20.86;53.94
40596;BME280;26304;48.794;9.820;2023-08-01T18:47:51;95447.78;;;20.84;54.31
40596;BME280;26304;48.794;9.820;2023-08-01T18:53:37;95458.88;;;20.75;54.39
40596;BME280;26304;48.794;9.820;2023-08-01T18:59:19;95474.38;;;20.73;55.11
40596;BME280;26304;48.794;9.820;2023-08-01T19:05:04;95484.56;;;20.75;55.05
40596;BME280;26304;48.794;9.820;2023-08-01T19:10:49;95494.94;;;20.85;54.31
40596;BME280;26304;48.794;9.820;2023-08-01T19:16:31;95503.84;;;20.72;55.56
40596;BME280;26304;48.794;9.820;2023-08-01T19:22:14;95504.66;;;20.68;54.58
40596;BME280;26304;48.794;9.820;2023-08-01T19:27:57;95519.84;;;20.61;55.00
40596;BME280;26304;48.794;9.820;2023-08-01T19:33:40;95528.03;;;20.70;56.94
40596;BME280;26304;48.794;9.820;2023-08-01T19:39:22;95537.63;;;20.80;55.96
40596;BME280;26304;48.794;9.820;2023-08-01T19:45:09;95539.22;;;20.78;54.97
40596;BME280;26304;48.794;9.820;2023-08-01T19:50:52;95552.88;;;20.73;55.00
40596;BME280;26304;48.794;9.820;2023-08-01T19:56:36;95551.19;;;20.59;55.12
40596;BME280;26304;48.794;9.820;2023-08-01T20:02:19;95567.63;;;20.46;55.42
40596;BME280;26304;48.794;9.820;2023-08-01T20:08:02;95563.84;;;20.47;54.86
40596;BME280;26304;48.794;9.820;2023-08-01T20:13:44;95574.56;;;20.37;54.93
40596;BME280;26304;48.794;9.820;2023-08-01T20:19:28;95574.31;;;20.27;55.10
40596;BME280;26304;48.794;9.820;2023-08-01T20:25:11;95575.84;;;20.01;56.07
40596;BME280;26304;48.794;9.820;2023-08-01T20:30:53;95574.91;;;20.11;55.79
40596;BME280;26304;48.794;9.820;2023-08-01T20:36:37;95581.84;;;20.02;55.57
40596;BME280;26304;48.794;9.820;2023-08-01T20:42:19;95581.19;;;19.94;56.03
40596;BME280;26304;48.794;9.820;2023-08-01T20:48:02;95593.13;;;20.02;55.80
40596;BME280;26304;48.794;9.820;2023-08-01T20:53:45;95594.13;;;19.85;55.89
40596;BME280;26304;48.794;9.820;2023-08-01T20:59:28;95596.75;;;19.85;55.92
40596;BME280;26304;48.794;9.820;2023-08-01T21:05:11;95601.28;;;19.84;55.96
40596;BME280;26304;48.794;9.820;2023-08-01T21:10:55;95602.47;;;19.80;56.04
40596;BME280;26304;48.794;9.820;2023-08-01T21:16:37;95606.63;;;19.81;55.99
40596;BME280;26304;48.794;9.820;2023-08-01T21:22:20;95604.81;;;19.70;56.23
40596;BME280;26304;48.794;9.820;2023-08-01T21:28:04;95601.09;;;19.68;56.38
40596;BME280;26304;48.794;9.820;2023-08-01T21:33:46;95602.91;;;19.40;57.18
40596;BME280;26304;48.794;9.820;2023-08-01T21:39:29;95606.50;;;19.57;56.63
40596;BME280;26304;48.794;9.820;2023-08-01T21:45:13;95615.38;;;19.70;56.38
40596;BME280;26304;48.794;9.820;2023-08-01T21:50:57;95605.56;;;19.40;57.01
40596;BME280;26304;48.794;9.820;2023-08-01T21:56:39;95598.38;;;19.44;56.99
40596;BME280;26304;48.794;9.820;2023-08-01T22:02:23;95592.25;;;19.51;57.07
40596;BME280;26304;48.794;9.820;2023-08-01T22:08:06;95595.00;;;19.40;57.02
40596;BME280;26304;48.794;9.820;2023-08-01T22:13:49;95598.44;;;19.37;57.70
40596;BME280;26304;48.794;9.820;2023-08-01T22:19:32;95596.63;;;19.34;57.88
40596;BME280;26304;48.794;9.820;2023-08-01T22:25:15;95596.28;;;19.28;58.30
40596;BME280;26304;48.794;9.820;2023-08-01T22:30:59;95603.75;;;19.33;57.68
40596;BME280;26304;48.794;9.820;2023-08-01T22:36:43;95616.09;;;19.40;57.47
40596;BME280;26304;48.794;9.820;2023-08-01T22:42:27;95613.13;;;19.38;57.99
40596;BME280;26304;48.794;9.820;2023-08-01T22:48:09;95614.78;;;19.24;58.04
40596;BME280;26304;48.794;9.820;2023-08-01T22:53:53;95605.31;;;19.27;58.20
40596;BME280;26304;48.794;9.820;2023-08-01T22:59:35;95609.50;;;19.24;58.33
40596;BME280;26304;48.794;9.820;2023-08-01T23:05:18;95612.19;;;19.17;58.36
40596;BME280;26304;48.794;9.820;2023-08-01T23:11:02;95608.50;;;19.11;58.85
40596;BME280;26304;48.794;9.820;2023-08-01T23:16:45;95624.00;;;19.05;59.17
40596;BME280;26304;48.794;9.820;2023-08-01T23:22:27;95611.59;;;19.02;58.57
40596;BME280;26304;48.794;9.820;2023-08-01T23:28:11;95605.59;;;19.02;59.34
40596;BME280;26304;48.794;9.820;2023-08-01T23:33:53;95616.66;;;18.86;59.81
40596;BME280;26304;48.794;9.820;2023-08-01T23:39:36;95615.47;;;18.91;59.48
40596;BME280;26304;48.794;9.820;2023-08-01T23:45:20;95612.81;;;18.94;59.48
40596;BME280;26304;48.794;9.820;2023-08-01T23:51:02;95607.66;;;18.80;59.46
40596;BME280;26304;48.794;9.820;2023-08-01T23:56:44;95596.81;;;18.70;59.68
